sensor_id;sensor_type;location;lat;lon;timestamp;pressure;altitude;pressure_sealevel;temperature;humidity
15308;BME280;7755;52.208;6.964;2023-12-20T00:02:29;100998.81;;;6.94;100.00
15308;BME280;7755;52.208;6.964;2023-12-20T00:06:34;101002.97;;;6.90;100.00
15308;BME280;7755;52.208;6.964;2023-12-20T00:10:39;101015.25;;;6.86;100.00
15308;BME280;7755;52.208;6.964;2023-12-20T00:14:44;101017.72;;;6.80;100.00
15308;BME280;7755;52.208;6.964;2023-12-20T00:18:51;101007.97;;;6.79;100.00
15308;BME280;7755;52.208;6.964;2023-12-20T00:22:57;101007.13;;;6.72;100.00
15308;BME280;7755;52.208;6.964;2023-12-20T00:27:02;100999.44;;;6.69;100.00
15308;BME280;7755;52.208;6.964;2023-12-20T00:31:07;101000.91;;;6.59;100.00
15308;BME280;7755;52.208;6.964;2023-12-20T00:35:15;100997.56;;;6.56;100.00
15308;BME280;7755;52.208;6.964;2023-12-20T00:39:20;101003.59;;;6.52;100.00
15308;BME280;7755;52.208;6.964;2023-12-20T00:43:26;101005.03;;;6.48;100.00
15308;BME280;7755;52.208;6.964;2023-12-20T00:47:31;101002.34;;;6.48;100.00
15308;BME280;7755;52.208;6.964;2023-12-20T00:51:38;100997.53;;;6.43;100.00
15308;BME280;7755;52.208;6.964;2023-12-20T00:55:43;101003.81;;;6.44;100.00
15308;BME280;7755;52.208;6.964;2023-12-20T00:59:48;100993.00;;;6.37;100.00
15308;BME280;7755;52.208;6.964;2023-12-20T01:03:53;100995.69;;;6.37;100.00
15308;BME280;7755;52.208;6.964;2023-12-20T01:08:01;100985.91;;;6.36;100.00
15308;BME280;7755;52.208;6.964;2023-12-20T01:12:06;100976.34;;;6.34;100.00
15308;BME280;7755;52.208;6.964;2023-12-20T01:16:11;100977.38;;;6.26;100.00
15308;BME280;7755;52.208;6.964;2023-12-20T01:20:16;100973.22;;;6.17;100.00
15308;BME280;7755;52.208;6.964;2023-12-20T01:24:24;100973.63;;;6.14;100.00
15308;BME280;7755;52.208;6.964;2023-12-20T01:28:29;100973.22;;;6.10;100.00
15308;BME280;7755;52.208;6.964;2023-12-20T01:32:34;100984.59;;;6.06;100.00
15308;BME280;7755;52.208;6.964;2023-12-20T01:36:39;100986.47;;;5.98;100.00
15308;BME280;7755;52.208;6.964;2023-12-20T01:40:47;100991.63;;;5.93;100.00
15308;BME280;7755;52.208;6.964;2023-12-20T01:44:52;100982.66;;;5.86;100.00
15308;BME280;7755;52.208;6.964;2023-12-20T01:49:07;100987.44;;;5.84;100.00
15308;BME280;7755;52.208;6.964;2023-12-20T01:53:13;100994.25;;;5.80;100.00
15308;BME280;7755;52.208;6.964;2023-12-20T01:57:21;100997.75;;;5.74;100.00
15308;BME280;7755;52.208;6.964;2023-12-20T02:01:26;100996.69;;;5.68;100.00
15308;BME280;7755;52.208;6.964;2023-12-20T02:05:31;100998.13;;;5.64;100.00
15308;BME280;7755;52.208;6.964;2023-12-20T02:09:36;100992.53;;;5.66;100.00
15308;BME280;7755;52.208;6.964;2023-12-20T02:13:45;100991.25;;;5.62;100.00
15308;BME280;7755;52.208;6.964;2023-12-20T02:17:50;100986.53;;;5.64;100.00
15308;BME280;7755;52.208;6.964;2023-12-20T02:22:10;100991.91;;;5.64;100.00
15308;BME280;7755;52.208;6.964;2023-12-20T02:26:15;100997.69;;;5.61;100.00
15308;BME280;7755;52.208;6.964;2023-12-20T02:30:20;100985.28;;;5.66;100.00
15308;BME280;7755;52.208;6.964;2023-12-20T02:34:25;100970.97;;;5.66;100.00
15308;BME280;7755;52.208;6.964;2023-12-20T02:38:33;100970.75;;;5.67;100.00
15308;BME280;7755;52.208;6.964;2023-12-20T02:42:38;100967.66;;;5.70;100.00
15308;BME280;7755;52.208;6.964;2023-12-20T02:46:43;100973.44;;;5.67;100.00
15308;BME280;7755;52.208;6.964;2023-12-20T02:50:48;100964.94;;;5.64;100.00
15308;BME280;7755;52.208;6.964;2023-12-20T02:54:56;100963.06;;;5.58;100.00
15308;BME280;7755;52.208;6.964;2023-12-20T02:59:01;100965.34;;;5.61;100.00
15308;BME280;7755;52.208;6.964;2023-12-20T03:03:07;100965.97;;;5.63;100.00
15308;BME280;7755;52.208;6.964;2023-12-20T03:07:12;100963.91;;;5.65;100.00
15308;BME280;7755;52.208;6.964;2023-12-20T03:11:19;100956.84;;;5.64;100.00
15308;BME280;7755;52.208;6.964;2023-12-20T03:15:24;100942.53;;;5.63;100.00
15308;BME280;7755;52.208;6.964;2023-12-20T03:19:29;100933.19;;;5.59;100.00
15308;BME280;7755;52.208;6.964;2023-12-20T03:23:34;100934.22;;;5.58;100.00
15308;BME280;7755;52.208;6.964;2023-12-20T03:27:42;100933.38;;;5.58;100.00
15308;BME280;7755;52.208;6.964;2023-12-20T03:31:47;100929.22;;;5.62;100.00
15308;BME280;7755;52.208;6.964;2023-12-20T03:35:52;100939.41;;;5.66;100.00
15308;BME280;7755;52.208;6.964;2023-12-20T03:39:57;100935.47;;;5.69;100.00
15308;BME280;7755;52.208;6.964;2023-12-20T03:44:04;100946.50;;;5.74;100.00
15308;BME280;7755;52.208;6.964;2023-12-20T03:48:09;100928.88;;;5.78;100.00
15308;BME280;7755;52.208;6.964;2023-12-20T03:52:14;100926.59;;;5.82;100.00
15308;BME280;7755;52.208;6.964;2023-12-20T03:56:19;100923.72;;;5.83;100.00
15308;BME280;7755;52.208;6.964;2023-12-20T04:00:26;100918.31;;;5.83;100.00
15308;BME280;7755;52.208;6.964;2023-12-20T04:04:31;100922.88;;;5.83;100.00
15308;BME280;7755;52.208;6.964;2023-12-20T04:08:36;100922.66;;;5.84;100.00
15308;BME280;7755;52.208;6.964;2023-12-20T04:12:41;100930.78;;;5.84;100.00
15308;BME280;7755;52.208;6.964;2023-12-20T04:16:49;100936.81;;;5.93;100.00
15308;BME280;7755;52.208;6.964;2023-12-20T04:20:54;100943.25;;;5.92;100.00
15308;BME280;7755;52.208;6.964;2023-12-20T04:24:58;100940.75;;;5.90;100.00
15308;BME280;7755;52.208;6.964;2023-12-20T04:29:03;100928.13;;;5.97;100.00
15308;BME280;7755;52.208;6.964;2023-12-20T04:33:11;100933.91;;;5.94;100.00
15308;BME280;7755;52.208;6.964;2023-12-20T04:37:16;100928.53;;;5.94;100.00
15308;BME280;7755;52.208;6.964;2023-12-20T04:41:21;100915.47;;;5.98;100.00
15308;BME280;7755;52.208;6.964;2023-12-20T04:45:26;100920.44;;;6.01;100.00
15308;BME280;7755;52.208;6.964;2023-12-20T04:49:33;100928.31;;;5.96;100.00
15308;BME280;7755;52.208;6.964;2023-12-20T04:53:38;100918.16;;;5.98;100.00
15308;BME280;7755;52.208;6.964;2023-12-20T04:57:43;100921.91;;;5.97;100.00
15308;BME280;7755;52.208;6.964;2023-12-20T05:01:48;100905.91;;;6.02;100.00
15308;BME280;7755;52.208;6.964;2023-12-20T05:05:56;100904.25;;;6.01;100.00
15308;BME280;7755;52.208;6.964;2023-12-20T05:10:02;100913.38;;;5.93;100.00
15308;BME280;7755;52.208;6.964;2023-12-20T05:14:07;100906.31;;;5.92;100.00
15308;BME280;7755;52.208;6.964;2023-12-20T05:18:12;100905.06;;;5.95;100.00
15308;BME280;7755;52.208;6.964;2023-12-20T05:22:19;100898.84;;;5.94;100.00
15308;BME280;7755;52.208;6.964;2023-12-20T05:26:24;100900.72;;;5.94;100.00
15308;BME280;7755;52.208;6.964;2023-12-20T05:30:31;100897.19;;;5.93;100.00
15308;BME280;7755;52.208;6.964;2023-12-20T05:34:36;100892.84;;;5.99;100.00
15308;BME280;7755;52.208;6.964;2023-12-20T05:38:43;100898.22;;;5.99;100.00
15308;BME280;7755;52.208;6.964;2023-12-20T05:42:48;100889.53;;;6.04;100.00
15308;BME280;7755;52.208;6.964;2023-12-20T05:46:53;100899.06;;;6.06;100.00
15308;BME280;7755;52.208;6.964;2023-12-20T05:50:58;100899.50;;;6.10;100.00
15308;BME280;7755;52.208;6.964;2023-12-20T05:55:06;100896.38;;;6.13;100.00
15308;BME280;7755;52.208;6.964;2023-12-20T05:59:11;100904.91;;;6.10;100.00
15308;BME280;7755;52.208;6.964;2023-12-20T06:03:16;100905.31;;;6.13;100.00
15308;BME280;7755;52.208;6.964;2023-12-20T06:07:21;100907.78;;;6.08;100.00
15308;BME280;7755;52.208;6.964;2023-12-20T06:11:28;100898.88;;;6.14;100.00
15308;BME280;7755;52.208;6.964;2023-12-20T06:15:33;100896.16;;;6.14;100.00
15308;BME280;7755;52.208;6.964;2023-12-20T06:19:38;100916.94;;;6.20;100.00
15308;BME280;7755;52.208;6.964;2023-12-20T06:23:44;100902.59;;;6.20;100.00
15308;BME280;7755;52.208;6.964;2023-12-20T06:27:52;100905.91;;;6.22;100.00
15308;BME280;7755;52.208;6.964;2023-12-20T06:31:57;100895.56;;;6.25;100.00
15308;BME280;7755;52.208;6.964;2023-12-20T06:36:02;100888.06;;;6.27;100.00
15308;BME280;7755;52.208;6.964;2023-12-20T06:40:08;100879.75;;;6.29;100.00
15308;BME280;7755;52.208;6.964;2023-12-20T06:44:21;100890.56;;;6.29;100.00
15308;BME280;7755;52.208;6.964;2023-12-20T06:48:26;100886.19;;;6.28;100.00
15308;BME280;7755;52.208;6.964;2023-12-20T06:52:31;100889.13;;;6.26;100.00
15308;BME280;7755;52.208;6.964;2023-12-20T06:56:36;100897.00;;;6.35;100.00
15308;BME280;7755;52.208;6.964;2023-12-20T07:00:43;100884.53;;;6.34;100.00
15308;BME280;7755;52.208;6.964;2023-12-20T07:04:48;100887.25;;;6.34;100.00
15308;BME280;7755;52.208;6.964;2023-12-20T07:08:53;100882.44;;;6.36;100.00
15308;BME280;7755;52.208;6.964;2023-12-20T07:12:58;100881.41;;;6.37;100.00
15308;BME280;7755;52.208;6.964;2023-12-20T07:17:06;100875.59;;;6.40;100.00
15308;BME280;7755;52.208;6.964;2023-12-20T07:21:13;100874.34;;;6.42;100.00
15308;BME280;7755;52.208;6.964;2023-12-20T07:25:18;100874.56;;;6.47;100.00
15308;BME280;7755;52.208;6.964;2023-12-20T07:29:23;100874.34;;;6.49;100.00
15308;BME280;7755;52.208;6.964;2023-12-20T07:33:30;100881.00;;;6.46;100.00
15308;BME280;7755;52.208;6.964;2023-12-20T07:37:40;100874.56;;;6.54;100.00
15308;BME280;7755;52.208;6.964;2023-12-20T07:41:46;100869.97;;;6.54;100.00
15308;BME280;7755;52.208;6.964;2023-12-20T07:45:51;100872.28;;;6.57;100.00
15308;BME280;7755;52.208;6.964;2023-12-20T07:49:58;100871.63;;;6.55;100.00
15308;BME280;7755;52.208;6.964;2023-12-20T07:54:05;100858.13;;;6.55;100.00
15308;BME280;7755;52.208;6.964;2023-12-20T07:58:10;100856.06;;;6.57;100.00
15308;BME280;7755;52.208;6.964;2023-12-20T08:02:15;100860.59;;;6.64;100.00
15308;BME280;7755;52.208;6.964;2023-12-20T08:06:22;100860.00;;;6.62;100.00
15308;BME280;7755;52.208;6.964;2023-12-20T08:10:27;100865.81;;;6.65;100.00
15308;BME280;7755;52.208;6.964;2023-12-20T08:14:33;100868.69;;;6.70;100.00
15308;BME280;7755;52.208;6.964;2023-12-20T08:18:38;100871.22;;;6.72;100.00
15308;BME280;7755;52.208;6.964;2023-12-20T08:22:45;100879.31;;;6.72;100.00
15308;BME280;7755;52.208;6.964;2023-12-20T08:26:50;100857.69;;;6.78;100.00
15308;BME280;7755;52.208;6.964;2023-12-20T08:30:55;100875.94;;;6.83;100.00
15308;BME280;7755;52.208;6.964;2023-12-20T08:35:00;100872.63;;;6.81;100.00
15308;BME280;7755;52.208;6.964;2023-12-20T08:39:08;100860.56;;;6.83;100.00
15308;BME280;7755;52.208;6.964;2023-12-20T08:43:13;100861.19;;;6.86;100.00
15308;BME280;7755;52.208;6.964;2023-12-20T08:47:18;100871.56;;;6.89;100.00
15308;BME280;7755;52.208;6.964;2023-12-20T08:51:23;100854.53;;;6.88;100.00
15308;BME280;7755;52.208;6.964;2023-12-20T08:55:31;100854.97;;;6.85;100.00
15308;BME280;7755;52.208;6.964;2023-12-20T08:59:36;100846.63;;;6.87;100.00
15308;BME280;7755;52.208;6.964;2023-12-20T09:03:40;100840.59;;;6.91;100.00
15308;BME280;7755;52.208;6.964;2023-12-20T09:07:45;100835.19;;;6.91;100.00
15308;BME280;7755;52.208;6.964;2023-12-20T09:11:53;100835.84;;;6.87;100.00
15308;BME280;7755;52.208;6.964;2023-12-20T09:15:58;100840.78;;;6.90;100.00
15308;BME280;7755;52.208;6.964;2023-12-20T09:20:04;100847.84;;;6.91;100.00
15308;BME280;7755;52.208;6.964;2023-12-20T09:24:10;100845.56;;;6.94;100.00
15308;BME280;7755;52.208;6.964;2023-12-20T09:28:18;100843.31;;;6.91;100.00
15308;BME280;7755;52.208;6.964;2023-12-20T09:32:26;100841.44;;;6.92;100.00
15308;BME280;7755;52.208;6.964;2023-12-20T09:36:32;100863.44;;;6.95;100.00
15308;BME280;7755;52.208;6.964;2023-12-20T09:40:41;100868.25;;;6.93;100.00
15308;BME280;7755;52.208;6.964;2023-12-20T09:44:48;100865.75;;;6.92;100.00
15308;BME280;7755;52.208;6.964;2023-12-20T09:48:54;100877.78;;;6.96;100.00
15308;BME280;7755;52.208;6.964;2023-12-20T09:53:00;100876.75;;;6.97;100.00
15308;BME280;7755;52.208;6.964;2023-12-20T09:57:06;100870.06;;;7.06;100.00
15308;BME280;7755;52.208;6.964;2023-12-20T10:01:14;100867.97;;;7.08;100.00
15308;BME280;7755;52.208;6.964;2023-12-20T10:05:26;100870.25;;;7.04;100.00
15308;BME280;7755;52.208;6.964;2023-12-20T10:09:32;100859.66;;;7.03;100.00
15308;BME280;7755;52.208;6.964;2023-12-20T10:13:39;100861.97;;;7.06;100.00
15308;BME280;7755;52.208;6.964;2023-12-20T10:17:49;100861.50;;;7.16;100.00
15308;BME280;7755;52.208;6.964;2023-12-20T10:21:56;100870.25;;;7.11;100.00
15308;BME280;7755;52.208;6.964;2023-12-20T10:26:02;100858.78;;;7.16;100.00
15308;BME280;7755;52.208;6.964;2023-12-20T10:30:08;100861.28;;;7.17;100.00
15308;BME280;7755;52.208;6.964;2023-12-20T10:34:16;100856.91;;;7.16;100.00
15308;BME280;7755;52.208;6.964;2023-12-20T10:38:21;100857.38;;;7.13;100.00
15308;BME280;7755;52.208;6.964;2023-12-20T10:42:26;100860.66;;;7.22;100.00
15308;BME280;7755;52.208;6.964;2023-12-20T10:46:31;100861.09;;;7.19;100.00
15308;BME280;7755;52.208;6.964;2023-12-20T10:50:41;100841.53;;;7.17;100.00
15308;BME280;7755;52.208;6.964;2023-12-20T10:54:46;100842.56;;;7.16;100.00
15308;BME280;7755;52.208;6.964;2023-12-20T10:58:51;100840.50;;;7.11;100.00
15308;BME280;7755;52.208;6.964;2023-12-20T11:02:56;100818.84;;;7.18;100.00
15308;BME280;7755;52.208;6.964;2023-12-20T11:07:17;100814.88;;;7.27;100.00
15308;BME280;7755;52.208;6.964;2023-12-20T11:11:29;100810.03;;;7.35;100.00
15308;BME280;7755;52.208;6.964;2023-12-20T11:15:38;100803.53;;;7.43;100.00
15308;BME280;7755;52.208;6.964;2023-12-20T11:20:05;100792.47;;;7.45;100.00
15308;BME280;7755;52.208;6.964;2023-12-20T11:24:15;100796.66;;;7.47;100.00
15308;BME280;7755;52.208;6.964;2023-12-20T11:28:23;100798.91;;;7.50;100.00
15308;BME280;7755;52.208;6.964;2023-12-20T11:32:28;100777.72;;;7.47;100.00
15308;BME280;7755;52.208;6.964;2023-12-20T11:36:33;100787.47;;;7.48;100.00
15308;BME280;7755;52.208;6.964;2023-12-20T11:40:42;100775.78;;;7.54;100.00
15308;BME280;7755;52.208;6.964;2023-12-20T11:44:47;100771.03;;;7.50;100.00
15308;BME280;7755;52.208;6.964;2023-12-20T11:48:52;100779.53;;;7.53;100.00
15308;BME280;7755;52.208;6.964;2023-12-20T11:52:57;100779.09;;;7.56;100.00
15308;BME280;7755;52.208;6.964;2023-12-20T11:57:05;100762.81;;;7.63;100.00
15308;BME280;7755;52.208;6.964;2023-12-20T12:01:10;100753.59;;;7.71;100.00
15308;BME280;7755;52.208;6.964;2023-12-20T12:05:15;100750.22;;;7.75;100.00
15308;BME280;7755;52.208;6.964;2023-12-20T12:09:20;100777.06;;;7.77;100.00
15308;BME280;7755;52.208;6.964;2023-12-20T12:13:28;100786.06;;;7.71;100.00
15308;BME280;7755;52.208;6.964;2023-12-20T12:17:33;100813.22;;;7.57;100.00
15308;BME280;7755;52.208;6.964;2023-12-20T12:21:38;100812.66;;;7.49;100.00
15308;BME280;7755;52.208;6.964;2023-12-20T12:25:44;100803.78;;;7.35;100.00
15308;BME280;7755;52.208;6.964;2023-12-20T12:30:15;100783.50;;;7.19;100.00
15308;BME280;7755;52.208;6.964;2023-12-20T12:34:20;100804.53;;;7.10;100.00
15308;BME280;7755;52.208;6.964;2023-12-20T12:38:25;100794.38;;;7.06;100.00
15308;BME280;7755;52.208;6.964;2023-12-20T12:42:30;100784.81;;;7.03;100.00
15308;BME280;7755;52.208;6.964;2023-12-20T12:46:38;100769.63;;;7.02;100.00
15308;BME280;7755;52.208;6.964;2023-12-20T12:50:45;100754.25;;;7.03;100.00
15308;BME280;7755;52.208;6.964;2023-12-20T12:54:50;100767.72;;;7.09;100.00
15308;BME280;7755;52.208;6.964;2023-12-20T12:58:55;100757.59;;;7.05;100.00
15308;BME280;7755;52.208;6.964;2023-12-20T13:03:03;100763.19;;;7.03;100.00
15308;BME280;7755;52.208;6.964;2023-12-20T13:07:08;100761.50;;;7.09;100.00
15308;BME280;7755;52.208;6.964;2023-12-20T13:11:15;100756.69;;;7.11;100.00
15308;BME280;7755;52.208;6.964;2023-12-20T13:15:19;100737.94;;;7.16;100.00
15308;BME280;7755;52.208;6.964;2023-12-20T13:19:27;100746.88;;;7.17;100.00
15308;BME280;7755;52.208;6.964;2023-12-20T13:23:33;100748.53;;;7.18;100.00
15308;BME280;7755;52.208;6.964;2023-12-20T13:27:41;100725.09;;;7.11;100.00
15308;BME280;7755;52.208;6.964;2023-12-20T13:31:46;100710.69;;;7.18;100.00
15308;BME280;7755;52.208;6.964;2023-12-20T13:35:54;100720.63;;;7.24;100.00
15308;BME280;7755;52.208;6.964;2023-12-20T13:40:00;100714.63;;;7.22;100.00
15308;BME280;7755;52.208;6.964;2023-12-20T13:44:05;100709.66;;;7.19;100.00
15308;BME280;7755;52.208;6.964;2023-12-20T13:48:10;100708.22;;;7.16;100.00
15308;BME280;7755;52.208;6.964;2023-12-20T13:52:18;100687.84;;;7.14;100.00
15308;BME280;7755;52.208;6.964;2023-12-20T13:56:23;100695.53;;;7.17;100.00
15308;BME280;7755;52.208;6.964;2023-12-20T14:00:28;100695.75;;;7.15;100.00
15308;BME280;7755;52.208;6.964;2023-12-20T14:04:33;100682.81;;;7.17;100.00
15308;BME280;7755;52.208;6.964;2023-12-20T14:08:47;100669.94;;;7.19;100.00
15308;BME280;7755;52.208;6.964;2023-12-20T14:12:51;100671.09;;;7.30;100.00
15308;BME280;7755;52.208;6.964;2023-12-20T14:16:57;100663.97;;;7.35;100.00
15308;BME280;7755;52.208;6.964;2023-12-20T14:21:02;100665.25;;;7.33;100.00
15308;BME280;7755;52.208;6.964;2023-12-20T14:25:11;100658.75;;;7.41;100.00
15308;BME280;7755;52.208;6.964;2023-12-20T14:29:16;100654.75;;;7.43;100.00
15308;BME280;7755;52.208;6.964;2023-12-20T14:33:21;100658.69;;;7.47;100.00
15308;BME280;7755;52.208;6.964;2023-12-20T14:37:27;100656.81;;;7.48;100.00
15308;BME280;7755;52.208;6.964;2023-12-20T14:41:35;100666.13;;;7.52;100.00
15308;BME280;7755;52.208;6.964;2023-12-20T14:45:40;100676.50;;;7.55;100.00
15308;BME280;7755;52.208;6.964;2023-12-20T14:49:44;100692.09;;;7.59;100.00
15308;BME280;7755;52.208;6.964;2023-12-20T14:53:49;100691.88;;;7.61;100.00
15308;BME280;7755;52.208;6.964;2023-12-20T14:57:57;100684.13;;;7.64;100.00
15308;BME280;7755;52.208;6.964;2023-12-20T15:02:03;100689.94;;;7.68;100.00
15308;BME280;7755;52.208;6.964;2023-12-20T15:06:08;100682.41;;;7.70;100.00
15308;BME280;7755;52.208;6.964;2023-12-20T15:10:18;100686.81;;;7.64;100.00
15308;BME280;7755;52.208;6.964;2023-12-20T15:14:25;100680.38;;;7.65;100.00
15308;BME280;7755;52.208;6.964;2023-12-20T15:18:30;100685.34;;;7.69;100.00
15308;BME280;7755;52.208;6.964;2023-12-20T15:22:35;100679.09;;;7.68;100.00
15308;BME280;7755;52.208;6.964;2023-12-20T15:26:42;100682.47;;;7.63;100.00
15308;BME280;7755;52.208;6.964;2023-12-20T15:30:50;100694.34;;;7.62;100.00
15308;BME280;7755;52.208;6.964;2023-12-20T15:34:55;100694.94;;;7.64;100.00
15308;BME280;7755;52.208;6.964;2023-12-20T15:39:00;100693.28;;;7.63;100.00
15308;BME280;7755;52.208;6.964;2023-12-20T15:43:05;100686.75;;;7.71;100.00
15308;BME280;7755;52.208;6.964;2023-12-20T15:47:13;100677.59;;;7.72;100.00
15308;BME280;7755;52.208;6.964;2023-12-20T15:51:20;100671.97;;;7.74;100.00
15308;BME280;7755;52.208;6.964;2023-12-20T15:55:26;100661.97;;;7.74;100.00
15308;BME280;7755;52.208;6.964;2023-12-20T15:59:31;100653.88;;;7.74;100.00
15308;BME280;7755;52.208;6.964;2023-12-20T16:03:40;100667.41;;;7.74;100.00
15308;BME280;7755;52.208;6.964;2023-12-20T16:07:55;100661.16;;;7.74;100.00
15308;BME280;7755;52.208;6.964;2023-12-20T16:12:00;100656.56;;;7.74;100.00
15308;BME280;7755;52.208;6.964;2023-12-20T16:16:05;100653.47;;;7.71;100.00
15308;BME280;7755;52.208;6.964;2023-12-20T16:20:13;100646.81;;;7.73;100.00
15308;BME280;7755;52.208;6.964;2023-12-20T16:24:18;100644.97;;;7.67;100.00
15308;BME280;7755;52.208;6.964;2023-12-20T16:28:23;100647.22;;;7.70;100.00
15308;BME280;7755;52.208;6.964;2023-12-20T16:32:27;100638.28;;;7.70;100.00
15308;BME280;7755;52.208;6.964;2023-12-20T16:36:48;100618.06;;;7.72;100.00
15308;BME280;7755;52.208;6.964;2023-12-20T16:40:54;100616.63;;;7.70;100.00
15308;BME280;7755;52.208;6.964;2023-12-20T16:44:59;100614.16;;;7.68;100.00
15308;BME280;7755;52.208;6.964;2023-12-20T16:49:05;100626.63;;;7.69;100.00
15308;BME280;7755;52.208;6.964;2023-12-20T16:53:13;100616.88;;;7.68;100.00
15308;BME280;7755;52.208;6.964;2023-12-20T16:57:19;100606.47;;;7.65;100.00
15308;BME280;7755;52.208;6.964;2023-12-20T17:01:23;100597.75;;;7.63;100.00
15308;BME280;7755;52.208;6.964;2023-12-20T17:05:28;100577.78;;;7.64;100.00
15308;BME280;7755;52.208;6.964;2023-12-20T17:09:36;100585.53;;;7.60;100.00
15308;BME280;7755;52.208;6.964;2023-12-20T17:13:41;100585.88;;;7.64;100.00
15308;BME280;7755;52.208;6.964;2023-12-20T17:17:46;100568.59;;;7.65;100.00
15308;BME280;7755;52.208;6.964;2023-12-20T17:21:51;100562.97;;;7.66;100.00
15308;BME280;7755;52.208;6.964;2023-12-20T17:25:59;100554.69;;;7.61;100.00
15308;BME280;7755;52.208;6.964;2023-12-20T17:30:05;100551.41;;;7.59;100.00
15308;BME280;7755;52.208;6.964;2023-12-20T17:34:10;100530.28;;;7.68;100.00
15308;BME280;7755;52.208;6.964;2023-12-20T17:38:15;100523.00;;;7.69;100.00
15308;BME280;7755;52.208;6.964;2023-12-20T17:42:23;100513.81;;;7.70;100.00
15308;BME280;7755;52.208;6.964;2023-12-20T17:46:28;100514.63;;;7.70;100.00
15308;BME280;7755;52.208;6.964;2023-12-20T17:50:33;100500.88;;;7.72;100.00
15308;BME280;7755;52.208;6.964;2023-12-20T17:54:38;100503.38;;;7.73;100.00
15308;BME280;7755;52.208;6.964;2023-12-20T17:58:45;100490.28;;;7.70;100.00
15308;BME280;7755;52.208;6.964;2023-12-20T18:02:50;100487.56;;;7.70;100.00
15308;BME280;7755;52.208;6.964;2023-12-20T18:06:56;100480.75;;;7.68;100.00
15308;BME280;7755;52.208;6.964;2023-12-20T18:11:01;100474.63;;;7.72;100.00
15308;BME280;7755;52.208;6.964;2023-12-20T18:15:10;100465.34;;;7.68;100.00
15308;BME280;7755;52.208;6.964;2023-12-20T18:19:15;100468.03;;;7.68;100.00
15308;BME280;7755;52.208;6.964;2023-12-20T18:23:21;100461.00;;;7.67;100.00
15308;BME280;7755;52.208;6.964;2023-12-20T18:27:26;100456.84;;;7.64;100.00
15308;BME280;7755;52.208;6.964;2023-12-20T18:31:34;100448.50;;;7.66;100.00
15308;BME280;7755;52.208;6.964;2023-12-20T18:35:39;100434.16;;;7.65;100.00
15308;BME280;7755;52.208;6.964;2023-12-20T18:39:45;100434.75;;;7.68;100.00
15308;BME280;7755;52.208;6.964;2023-12-20T18:43:52;100428.28;;;7.69;100.00
15308;BME280;7755;52.208;6.964;2023-12-20T18:48:00;100423.00;;;7.74;100.00
15308;BME280;7755;52.208;6.964;2023-12-20T18:52:05;100412.63;;;7.71;100.00
15308;BME280;7755;52.208;6.964;2023-12-20T18:56:10;100413.47;;;7.71;100.00
15308;BME280;7755;52.208;6.964;2023-12-20T19:00:16;100405.97;;;7.73;100.00
15308;BME280;7755;52.208;6.964;2023-12-20T19:04:23;100399.41;;;7.81;100.00
15308;BME280;7755;52.208;6.964;2023-12-20T19:08:28;100404.44;;;7.77;100.00
15308;BME280;7755;52.208;6.964;2023-12-20T19:12:33;100392.53;;;7.78;100.00
15308;BME280;7755;52.208;6.964;2023-12-20T19:16:38;100387.13;;;7.78;100.00
15308;BME280;7755;52.208;6.964;2023-12-20T19:20:46;100379.97;;;7.84;100.00
15308;BME280;7755;52.208;6.964;2023-12-20T19:24:52;100366.00;;;7.87;100.00
15308;BME280;7755;52.208;6.964;2023-12-20T19:28:57;100367.16;;;7.91;100.00
15308;BME280;7755;52.208;6.964;2023-12-20T19:33:01;100363.41;;;7.92;100.00
15308;BME280;7755;52.208;6.964;2023-12-20T19:37:09;100357.78;;;7.93;100.00
15308;BME280;7755;52.208;6.964;2023-12-20T19:41:14;100341.53;;;7.93;100.00
15308;BME280;7755;52.208;6.964;2023-12-20T19:45:19;100338.72;;;8.00;100.00
15308;BME280;7755;52.208;6.964;2023-12-20T19:49:24;100330.81;;;7.99;100.00
15308;BME280;7755;52.208;6.964;2023-12-20T19:53:31;100329.78;;;8.00;100.00
15308;BME280;7755;52.208;6.964;2023-12-20T19:57:36;100311.56;;;8.07;100.00
15308;BME280;7755;52.208;6.964;2023-12-20T20:01:42;100301.53;;;8.07;100.00
15308;BME280;7755;52.208;6.964;2023-12-20T20:05:47;100302.38;;;8.08;100.00
15308;BME280;7755;52.208;6.964;2023-12-20T20:09:55;100298.34;;;8.10;100.00
15308;BME280;7755;52.208;6.964;2023-12-20T20:13:59;100296.00;;;8.14;100.00
15308;BME280;7755;52.208;6.964;2023-12-20T20:18:05;100295.78;;;8.15;100.00
15308;BME280;7755;52.208;6.964;2023-12-20T20:22:11;100302.00;;;8.16;100.00
15308;BME280;7755;52.208;6.964;2023-12-20T20:26:21;100284.94;;;8.15;100.00
15308;BME280;7755;52.208;6.964;2023-12-20T20:30:26;100288.81;;;8.19;100.00
15308;BME280;7755;52.208;6.964;2023-12-20T20:34:31;100279.66;;;8.20;100.00
15308;BME280;7755;52.208;6.964;2023-12-20T20:38:36;100289.75;;;8.25;100.00
15308;BME280;7755;52.208;6.964;2023-12-20T20:42:43;100292.13;;;8.21;100.00
15308;BME280;7755;52.208;6.964;2023-12-20T20:46:50;100286.97;;;8.20;100.00
15308;BME280;7755;52.208;6.964;2023-12-20T20:50:56;100290.59;;;8.26;100.00
15308;BME280;7755;52.208;6.964;2023-12-20T20:55:01;100281.63;;;8.25;100.00
15308;BME280;7755;52.208;6.964;2023-12-20T20:59:09;100256.56;;;8.30;100.00
15308;BME280;7755;52.208;6.964;2023-12-20T21:03:14;100251.97;;;8.30;100.00
15308;BME280;7755;52.208;6.964;2023-12-20T21:07:19;100253.16;;;8.34;100.00
15308;BME280;7755;52.208;6.964;2023-12-20T21:11:24;100252.78;;;8.31;100.00
15308;BME280;7755;52.208;6.964;2023-12-20T21:15:31;100249.84;;;8.32;100.00
15308;BME280;7755;52.208;6.964;2023-12-20T21:19:36;100243.38;;;8.33;100.00
15308;BME280;7755;52.208;6.964;2023-12-20T21:23:41;100242.53;;;8.33;100.00
15308;BME280;7755;52.208;6.964;2023-12-20T21:27:46;100219.84;;;8.34;100.00
15308;BME280;7755;52.208;6.964;2023-12-20T21:31:54;100195.81;;;8.37;100.00
15308;BME280;7755;52.208;6.964;2023-12-20T21:35:59;100193.47;;;8.41;100.00
15308;BME280;7755;52.208;6.964;2023-12-20T21:40:06;100192.28;;;8.37;100.00
15308;BME280;7755;52.208;6.964;2023-12-20T21:44:11;100174.59;;;8.34;100.00